Nazareth, Texas
Current Conditions -  °F | °C
As of 3:35 AM on Sunday 23 Nov 2014 (Local Time) from KHRX Reporting Station
Clear Clear  
Wind Chill: 52°   Ceiling: Unl
Heat Index: 52°   Visibility: 10mi
Dew Point: 23°   Wind: 15mph
Humidity: 33%   Direction: 210°SSW
Pressure: 29.55"   Gusts: NA
Location:  34.54°N, 102.1°W
Report Text: KHRX 230935Z AUTO 21013KT 10SM CLR 11/M05 A2955 RMK AO2 T01111049
Loading
Personal Weather Stations






























Interactive Weather Map New forecast layout! Learn more

10-Day Weather Forecast

Advertisements
Track Severe Weather on mobile